Time;durP1;ratioP1;P1;durP2;ratioP2;P2;SDS_P1;SDS_P2;PMS_P1;PMS_P2;Temp;Humidity;BMP_temperature;BMP_pressure;BME280_temperature;BME280_humidity;BME280_pressure;Samples;Min_cycle;Max_cycle;Signal;HPM_P1;HPM_P2
2022/12/10 00:01:42;;;;;;;48.78;23.77;;;1.40;99.90;;;;;;4987848;28;20039;-75
2022/12/10 00:04:20;;;;;;;51.88;23.45;;;1.40;99.90;;;;;;4988428;28;20030;-75
2022/12/10 00:06:46;;;;;;;55.22;24.33;;;1.30;99.90;;;;;;4983137;28;20018;-76
2022/12/10 00:09:17;;;;;;;47.53;22.55;;;1.30;99.90;;;;;;4987521;28;20093;-75
2022/12/10 00:11:43;;;;;;;56.88;25.10;;;1.30;99.90;;;;;;4991196;28;20031;-76
2022/12/10 00:14:15;;;;;;;50.28;24.10;;;1.30;99.90;;;;;;4985531;28;20030;-75
2022/12/10 00:16:43;;;;;;;55.10;25.40;;;1.30;99.90;;;;;;4988980;28;20093;-75
2022/12/10 00:19:10;;;;;;;52.17;22.38;;;1.30;99.90;;;;;;4984906;28;20395;-75
2022/12/10 00:21:38;;;;;;;54.65;24.30;;;1.30;99.90;;;;;;4988364;28;20035;-75
2022/12/10 00:24:05;;;;;;;53.38;24.10;;;1.30;99.90;;;;;;4985950;28;20041;-75
2022/12/10 00:26:40;;;;;;;59.08;25.27;;;1.30;99.90;;;;;;4983620;28;20045;-76
2022/12/10 00:29:09;;;;;;;58.78;26.35;;;1.30;99.90;;;;;;4984802;28;20105;-74
2022/12/10 00:31:46;;;;;;;57.90;25.17;;;1.20;99.90;;;;;;4987046;28;20030;-74
2022/12/10 00:34:15;;;;;;;56.85;25.75;;;1.20;99.90;;;;;;4999274;28;20037;-74
2022/12/10 00:36:47;;;;;;;56.85;25.15;;;1.20;99.90;;;;;;4985520;28;20113;-76
2022/12/10 00:39:17;;;;;;;55.65;25.13;;;1.20;99.90;;;;;;4985311;28;20046;-76
2022/12/10 00:41:48;;;;;;;53.08;23.70;;;1.20;99.90;;;;;;4987914;28;20027;-75
2022/12/10 00:44:15;;;;;;;55.50;25.45;;;1.20;99.90;;;;;;4985520;28;20475;-75
2022/12/10 00:46:44;;;;;;;53.90;23.45;;;1.20;99.90;;;;;;4985633;28;20022;-76
2022/12/10 00:49:24;;;;;;;54.83;25.75;;;1.10;99.90;;;;;;4984752;28;20459;-75
2022/12/10 00:51:52;;;;;;;57.78;25.70;;;1.10;99.90;;;;;;4984801;28;20483;-75
2022/12/10 00:54:24;;;;;;;56.22;25.48;;;1.10;99.90;;;;;;4982757;28;20026;-75
2022/12/10 00:56:56;;;;;;;54.75;26.02;;;1.10;99.90;;;;;;4987083;28;20406;-75
2022/12/10 00:59:21;;;;;;;54.30;24.77;;;1.10;99.90;;;;;;4985752;28;20124;-75
2022/12/10 01:01:47;;;;;;;50.63;24.52;;;1.10;99.90;;;;;;4982134;28;20297;-75
2022/12/10 01:04:18;;;;;;;59.05;26.98;;;1.10;99.90;;;;;;4982755;28;20120;-76
2022/12/10 01:06:47;;;;;;;55.45;24.85;;;1.20;99.90;;;;;;4985925;28;20034;-75
2022/12/10 01:09:15;;;;;;;54.65;25.90;;;1.20;99.90;;;;;;4986053;28;20026;-76
2022/12/10 01:11:43;;;;;;;59.45;25.20;;;1.20;99.90;;;;;;4987114;28;20026;-76
2022/12/10 01:14:11;;;;;;;55.25;24.25;;;1.20;99.90;;;;;;4988558;28;20034;-76
2022/12/10 01:16:37;;;;;;;54.90;24.88;;;1.30;99.90;;;;;;4988446;28;20029;-76
2022/12/10 01:19:03;;;;;;;53.33;24.45;;;1.30;99.90;;;;;;4985189;28;20537;-76
2022/12/10 01:21:33;;;;;;;55.25;25.10;;;1.30;99.90;;;;;;4988765;28;20038;-75
2022/12/10 01:23:58;;;;;;;53.92;24.23;;;1.40;99.90;;;;;;4986499;28;20100;-76
2022/12/10 01:26:36;;;;;;;52.90;23.52;;;1.30;99.90;;;;;;4986782;28;20487;-76
2022/12/10 01:29:10;;;;;;;47.13;22.88;;;1.40;99.90;;;;;;4987320;28;20023;-76
2022/12/10 01:31:38;;;;;;;50.90;23.48;;;1.40;99.90;;;;;;4984690;28;20046;-76
2022/12/10 01:34:18;;;;;;;45.08;21.95;;;1.40;99.90;;;;;;4984872;28;20034;-76
2022/12/10 01:36:48;;;;;;;51.22;23.50;;;1.40;99.90;;;;;;4982286;28;20049;-77
2022/12/10 01:39:16;;;;;;;51.10;23.05;;;1.40;99.90;;;;;;4985089;28;20114;-76
2022/12/10 01:42:10;;;;;;;49.10;24.70;;;1.40;99.90;;;;;;4982459;28;20054;-76
2022/12/10 01:44:44;;;;;;;51.85;23.63;;;1.40;99.90;;;;;;4978641;28;20046;-75
2022/12/10 01:47:19;;;;;;;49.70;22.55;;;1.40;99.90;;;;;;4986458;28;20033;-76
2022/12/10 01:49:47;;;;;;;48.28;23.15;;;1.40;99.90;;;;;;4985801;28;20066;-75
2022/12/10 01:52:13;;;;;;;50.50;23.63;;;1.30;99.90;;;;;;4984845;28;20432;-76
2022/12/10 01:54:43;;;;;;;50.50;21.85;;;1.30;99.90;;;;;;4984499;28;21455;-77
2022/12/10 01:57:26;;;;;;;50.40;23.52;;;1.30;99.90;;;;;;4986947;28;20030;-76
2022/12/10 02:00:06;;;;;;;49.83;23.35;;;1.30;99.90;;;;;;4991033;28;20023;-76
2022/12/10 02:02:45;;;;;;;50.08;22.88;;;1.30;99.90;;;;;;4986760;28;20027;-76
2022/12/10 02:05:32;;;;;;;52.40;22.05;;;1.30;99.90;;;;;;4989254;28;20030;-75
2022/12/10 02:08:25;;;;;;;52.47;23.60;;;1.30;99.90;;;;;;4991366;28;20033;-75
2022/12/10 02:11:13;;;;;;;57.08;25.02;;;1.30;99.90;;;;;;4985527;28;20035;-76
2022/12/10 02:14:02;;;;;;;42.80;21.50;;;1.30;99.90;;;;;;4988776;28;20019;-76
2022/12/10 02:16:39;;;;;;;50.53;22.75;;;1.30;99.90;;;;;;4989819;28;20074;-76
2022/12/10 02:19:36;;;;;;;48.78;22.45;;;1.30;99.90;;;;;;4991116;28;20026;-76
2022/12/10 02:22:04;;;;;;;50.58;22.90;;;1.30;99.90;;;;;;4988728;28;20039;-76
2022/12/10 02:24:34;;;;;;;49.28;23.08;;;1.20;99.90;;;;;;4989750;28;20030;-76
2022/12/10 02:27:19;;;;;;;53.92;24.42;;;1.20;99.90;;;;;;4985078;28;20057;-76
2022/12/10 02:29:47;;;;;;;48.75;24.75;;;1.20;99.90;;;;;;4988529;28;20030;-76
2022/12/10 02:32:19;;;;;;;50.25;24.00;;;1.20;99.90;;;;;;4983821;28;20088;-75
2022/12/10 02:34:50;;;;;;;55.67;23.92;;;1.20;99.90;;;;;;4990135;28;20034;-76
2022/12/10 02:37:39;;;;;;;52.92;23.65;;;1.20;99.90;;;;;;4985627;28;20037;-76
2022/12/10 02:40:16;;;;;;;53.83;24.88;;;1.20;99.90;;;;;;4987525;28;20438;-76
2022/12/10 02:42:49;;;;;;;56.95;25.27;;;1.20;99.90;;;;;;4993935;28;20045;-76
2022/12/10 02:45:16;;;;;;;52.45;22.98;;;1.10;99.90;;;;;;4990130;28;20026;-75
2022/12/10 02:47:43;;;;;;;51.67;24.02;;;1.10;99.90;;;;;;4988606;28;20101;-76
2022/12/10 02:50:18;;;;;;;52.47;23.58;;;1.10;99.90;;;;;;4986695;28;20110;-75
2022/12/10 02:52:49;;;;;;;50.50;24.30;;;1.10;99.90;;;;;;4989158;28;20057;-76
2022/12/10 02:55:21;;;;;;;61.53;26.20;;;1.10;99.90;;;;;;4988072;28;20076;-75
2022/12/10 02:58:24;;;;;;;58.40;24.98;;;1.10;99.90;;;;;;4992045;28;20376;-76
2022/12/10 03:01:09;;;;;;;58.72;23.70;;;1.10;99.90;;;;;;4985037;28;20450;-76
2022/12/10 03:04:00;;;;;;;61.55;25.90;;;1.10;99.90;;;;;;4986393;28;20377;-76
2022/12/10 03:06:51;;;;;;;64.75;25.38;;;1.20;99.90;;;;;;4990317;28;20372;-76
2022/12/10 03:09:39;;;;;;;64.10;26.25;;;1.20;99.90;;;;;;4956704;28;20383;-76
2022/12/10 03:12:19;;;;;;;59.13;27.40;;;1.10;99.90;;;;;;4990075;28;20384;-76
2022/12/10 03:14:48;;;;;;;67.03;28.33;;;1.10;99.90;;;;;;4991393;28;20029;-76
2022/12/10 03:17:23;;;;;;;79.82;30.20;;;1.10;99.90;;;;;;5004077;28;20463;-76
2022/12/10 03:19:50;;;;;;;77.30;29.50;;;1.10;99.90;;;;;;4989311;28;20030;-76
2022/12/10 03:22:19;;;;;;;79.18;31.90;;;1.10;99.90;;;;;;4990586;28;20105;-76
2022/12/10 03:24:47;;;;;;;70.10;29.38;;;1.10;99.90;;;;;;4991807;28;20077;-76
2022/12/10 03:27:18;;;;;;;73.85;29.70;;;1.10;99.90;;;;;;4990222;28;20029;-76
2022/12/10 03:29:55;;;;;;;71.95;29.08;;;1.10;99.90;;;;;;4994277;28;20042;-76
2022/12/10 03:32:27;;;;;;;72.18;29.17;;;1.10;99.90;;;;;;4989756;28;20086;-76
2022/12/10 03:34:56;;;;;;;74.45;28.38;;;1.10;99.90;;;;;;4991123;28;20026;-75
2022/12/10 03:37:22;;;;;;;72.93;28.05;;;1.10;99.90;;;;;;4990045;28;20100;-76
2022/12/10 03:39:56;;;;;;;80.93;31.17;;;1.10;99.90;;;;;;4986759;28;20089;-75
2022/12/10 03:42:21;;;;;;;74.57;29.65;;;1.10;99.90;;;;;;4990773;28;20439;-76
2022/12/10 03:44:50;;;;;;;68.72;28.77;;;1.10;99.90;;;;;;4991357;28;20029;-75
2022/12/10 03:47:23;;;;;;;64.65;28.80;;;1.10;99.90;;;;;;4986595;28;20034;-76
2022/12/10 03:49:49;;;;;;;69.78;26.45;;;1.10;99.90;;;;;;4990196;28;20467;-75
2022/12/10 03:52:15;;;;;;;74.32;28.40;;;1.10;99.90;;;;;;4992103;28;20107;-76
2022/12/10 03:54:46;;;;;;;55.83;25.63;;;1.10;99.90;;;;;;4987888;28;20027;-76
2022/12/10 03:57:15;;;;;;;64.93;26.10;;;1.10;99.90;;;;;;4987239;28;20241;-76
2022/12/10 03:59:50;;;;;;;65.45;27.77;;;1.10;99.90;;;;;;4991111;28;20046;-76
2022/12/10 04:02:16;;;;;;;61.85;26.88;;;1.10;99.90;;;;;;4988828;28;20050;-76
2022/12/10 04:04:41;;;;;;;61.65;25.98;;;1.10;99.90;;;;;;4989578;28;20045;-76
2022/12/10 04:07:13;;;;;;;58.55;26.58;;;1.10;99.90;;;;;;4986332;28;20041;-76
2022/12/10 04:09:38;;;;;;;61.60;27.15;;;1.10;99.90;;;;;;4993452;28;20030;-76
2022/12/10 04:12:16;;;;;;;65.45;28.77;;;1.10;99.90;;;;;;4989787;28;20025;-76
2022/12/10 04:17:33;;;;;;;55.33;25.50;;;1.10;99.90;;;;;;4989917;28;20064;-76
2022/12/10 04:19:59;;;;;;;58.28;26.63;;;1.10;99.90;;;;;;4987665;28;20085;-76
2022/12/10 04:27:59;;;;;;;55.58;23.60;;;1.20;99.90;;;;;;4988326;28;20122;-76
2022/12/10 04:30:28;;;;;;;57.63;25.70;;;1.10;99.90;;;;;;4985164;28;20036;-76
2022/12/10 04:32:56;;;;;;;56.53;24.58;;;1.20;99.90;;;;;;4989393;28;20030;-76
2022/12/10 04:35:22;;;;;;;55.22;24.67;;;1.20;99.90;;;;;;4987177;28;20436;-76
2022/12/10 04:37:48;;;;;;;53.38;24.40;;;1.20;99.90;;;;;;4989904;28;20050;-76
2022/12/10 04:40:16;;;;;;;56.85;25.67;;;1.20;99.90;;;;;;4987967;28;20077;-77
2022/12/10 04:42:42;;;;;;;57.92;25.55;;;1.20;99.90;;;;;;4983550;28;20018;-76
2022/12/10 04:45:08;;;;;;;56.58;25.02;;;1.20;99.90;;;;;;4987046;28;20117;-75
2022/12/10 04:47:33;;;;;;;55.60;23.83;;;1.20;99.90;;;;;;4990064;28;20039;-76
2022/12/10 04:50:02;;;;;;;52.63;25.02;;;1.20;99.90;;;;;;4987997;28;20099;-76
2022/12/10 04:52:28;;;;;;;51.72;24.73;;;1.20;99.90;;;;;;4987171;28;20026;-77
2022/12/10 04:54:53;;;;;;;50.47;23.70;;;1.20;99.90;;;;;;4984436;28;20029;-76
2022/12/10 04:57:19;;;;;;;47.08;22.30;;;1.20;99.90;;;;;;4984246;28;20121;-75
2022/12/10 04:59:44;;;;;;;51.45;24.17;;;1.20;99.90;;;;;;4987673;28;20440;-76
2022/12/10 05:02:16;;;;;;;50.67;23.40;;;1.20;99.90;;;;;;4986396;28;20100;-76
2022/12/10 05:04:44;;;;;;;51.03;23.45;;;1.10;99.90;;;;;;4987595;28;20038;-76
2022/12/10 05:07:16;;;;;;;54.30;22.88;;;1.20;99.90;;;;;;4988060;28;20027;-76
2022/12/10 05:09:42;;;;;;;49.13;22.88;;;1.10;99.90;;;;;;4983461;28;20242;-76
2022/12/10 05:12:19;;;;;;;53.55;23.48;;;1.10;99.90;;;;;;5000409;23;20054;-72
2022/12/10 05:14:45;;;;;;;51.28;22.95;;;1.10;99.90;;;;;;4992313;28;20030;-72
2022/12/10 05:17:14;;;;;;;48.88;23.70;;;1.10;99.90;;;;;;4993394;28;20479;-72
2022/12/10 05:19:45;;;;;;;48.83;22.33;;;1.10;99.90;;;;;;4993405;28;20030;-72
2022/12/10 05:25:08;;;;;;;45.85;22.13;;;1.10;99.90;;;;;;4993660;28;20077;-72
2022/12/10 05:27:36;;;;;;;51.72;22.13;;;1.10;99.90;;;;;;4993376;28;20026;-72
2022/12/10 05:30:09;;;;;;;48.65;22.88;;;1.10;99.90;;;;;;4992774;28;20026;-72
2022/12/10 05:32:41;;;;;;;47.00;22.42;;;1.10;99.90;;;;;;4992483;28;20081;-73
2022/12/10 05:35:12;;;;;;;48.17;22.73;;;1.10;99.90;;;;;;4990688;28;20129;-74
2022/12/10 05:37:41;;;;;;;49.67;23.52;;;1.10;99.90;;;;;;4988360;28;20029;-74
2022/12/10 05:40:07;;;;;;;49.83;23.52;;;1.10;99.90;;;;;;4989916;28;20113;-74
2022/12/10 05:42:33;;;;;;;47.35;23.88;;;1.10;99.90;;;;;;4994614;28;20121;-74
2022/12/10 05:45:08;;;;;;;50.63;23.45;;;1.10;99.90;;;;;;4992809;28;20117;-74
2022/12/10 05:47:33;;;;;;;48.30;24.02;;;1.20;99.90;;;;;;4990404;28;20038;-73
2022/12/10 05:49:59;;;;;;;53.38;24.67;;;1.20;99.90;;;;;;4991205;28;20030;-73
2022/12/10 05:52:25;;;;;;;51.88;24.15;;;1.10;99.90;;;;;;4991389;28;20053;-73
2022/12/10 05:54:50;;;;;;;50.13;23.80;;;1.20;99.90;;;;;;4993029;28;20106;-73
2022/12/10 05:57:16;;;;;;;50.50;23.20;;;1.20;99.90;;;;;;4992504;28;20030;-73
2022/12/10 05:59:44;;;;;;;50.30;23.08;;;1.20;99.90;;;;;;4991338;28;20022;-73
2022/12/10 06:02:16;;;;;;;54.13;23.38;;;1.20;99.90;;;;;;4991086;28;20049;-73
2022/12/10 06:04:44;;;;;;;50.13;22.70;;;1.20;99.90;;;;;;4990073;28;20034;-76
2022/12/10 06:07:10;;;;;;;51.72;23.00;;;1.20;99.90;;;;;;4982176;28;20061;-76
2022/12/10 06:09:35;;;;;;;52.65;24.85;;;1.20;99.90;;;;;;4983787;28;20058;-77
2022/12/10 06:12:01;;;;;;;52.90;25.00;;;1.20;99.90;;;;;;4989122;28;20057;-77
2022/12/10 06:14:27;;;;;;;57.10;26.95;;;1.20;99.90;;;;;;4987707;28;20034;-77
2022/12/10 06:16:55;;;;;;;52.67;24.02;;;1.20;99.90;;;;;;4986886;28;20384;-76
2022/12/10 06:19:39;;;;;;;46.55;23.13;;;1.20;99.90;;;;;;4986328;28;20026;-72
2022/12/10 06:22:10;;;;;;;52.13;23.23;;;1.30;99.90;;;;;;4988442;28;20115;-73
2022/12/10 06:24:36;;;;;;;50.83;22.90;;;1.20;99.90;;;;;;4992509;28;20034;-72
2022/12/10 06:27:01;;;;;;;51.17;23.45;;;1.20;99.90;;;;;;4979867;28;20114;-72
2022/12/10 06:29:30;;;;;;;53.33;24.17;;;1.30;99.90;;;;;;4979895;28;20034;-72
2022/12/10 06:32:05;;;;;;;51.15;24.30;;;1.30;99.90;;;;;;4991964;28;20077;-72
2022/12/10 06:34:30;;;;;;;49.45;23.25;;;1.30;99.90;;;;;;4995099;28;20034;-72
2022/12/10 06:36:56;;;;;;;50.40;22.63;;;1.30;99.90;;;;;;4924500;28;20069;-72
2022/12/10 06:39:21;;;;;;;50.70;22.52;;;1.20;99.90;;;;;;4967151;28;20038;-72
2022/12/10 06:41:47;;;;;;;50.40;22.73;;;1.20;99.90;;;;;;4966202;28;20085;-72
2022/12/10 06:44:13;;;;;;;46.53;23.70;;;1.20;99.90;;;;;;4974299;28;20057;-73
2022/12/10 06:46:40;;;;;;;45.63;20.70;;;1.20;99.90;;;;;;4969226;28;20118;-73
2022/12/10 06:49:07;;;;;;;50.15;23.23;;;1.20;99.90;;;;;;4974998;28;20029;-72
2022/12/10 06:51:33;;;;;;;48.83;22.45;;;1.20;99.90;;;;;;4975764;28;20038;-72
2022/12/10 06:53:59;;;;;;;51.92;22.92;;;1.10;99.90;;;;;;4969791;28;20023;-72
2022/12/10 06:56:25;;;;;;;51.85;22.67;;;1.10;99.90;;;;;;4970323;28;20131;-73
2022/12/10 06:58:50;;;;;;;44.80;22.48;;;1.10;99.90;;;;;;4971754;28;20161;-72
2022/12/10 07:01:25;;;;;;;45.30;22.42;;;1.10;99.90;;;;;;4967690;28;20109;-72
2022/12/10 07:03:56;;;;;;;48.28;22.92;;;1.10;99.90;;;;;;4972131;28;20054;-72
2022/12/10 07:06:23;;;;;;;50.20;22.23;;;1.00;99.90;;;;;;4969537;28;20153;-72
2022/12/10 07:08:50;;;;;;;45.55;21.38;;;1.10;99.90;;;;;;4972706;28;20105;-72
2022/12/10 07:11:19;;;;;;;46.88;21.98;;;1.10;99.90;;;;;;4968662;28;20022;-72
2022/12/10 07:13:44;;;;;;;40.78;20.58;;;1.10;99.90;;;;;;4967807;28;20023;-71
2022/12/10 07:16:22;;;;;;;45.97;21.65;;;1.00;99.90;;;;;;4972440;28;20031;-72
2022/12/10 07:18:48;;;;;;;50.72;22.25;;;1.00;99.90;;;;;;4971372;28;20027;-72
2022/12/10 07:21:19;;;;;;;43.83;21.95;;;1.00;99.90;;;;;;4972133;28;20534;-71
2022/12/10 07:23:45;;;;;;;45.95;22.52;;;1.00;99.90;;;;;;4971685;28;20113;-71
2022/12/10 07:26:11;;;;;;;47.17;21.83;;;1.00;99.90;;;;;;4971716;28;20161;-72
2022/12/10 07:28:37;;;;;;;46.40;21.92;;;1.00;99.90;;;;;;4967953;28;20027;-72
2022/12/10 07:31:04;;;;;;;37.90;20.50;;;1.00;99.90;;;;;;4968853;28;20030;-71
2022/12/10 07:33:30;;;;;;;46.90;22.05;;;1.00;99.90;;;;;;4970400;28;20098;-71
2022/12/10 07:35:56;;;;;;;40.38;20.33;;;1.00;99.90;;;;;;4971199;28;20178;-72
2022/12/10 07:38:23;;;;;;;37.58;21.45;;;1.00;99.90;;;;;;4970883;28;20030;-73
2022/12/10 07:40:49;;;;;;;41.67;20.45;;;0.90;99.90;;;;;;4970332;28;20034;-72
2022/12/10 07:43:15;;;;;;;44.00;22.25;;;1.00;99.90;;;;;;4971675;28;20479;-73
2022/12/10 07:45:40;;;;;;;43.30;21.98;;;1.00;99.90;;;;;;4968193;28;20103;-72
2022/12/10 07:48:06;;;;;;;44.00;20.98;;;1.00;99.90;;;;;;4966281;28;20559;-72
2022/12/10 07:50:32;;;;;;;40.33;21.75;;;1.00;99.90;;;;;;4967802;28;20029;-73
2022/12/10 07:52:57;;;;;;;42.70;21.65;;;1.00;99.90;;;;;;4969297;28;20033;-73
2022/12/10 07:55:23;;;;;;;41.95;19.98;;;1.10;99.90;;;;;;4971923;28;20030;-72
2022/12/10 07:57:49;;;;;;;47.20;21.05;;;1.00;99.90;;;;;;4972016;28;20106;-73
2022/12/10 08:00:14;;;;;;;39.97;20.55;;;1.10;99.90;;;;;;4969563;28;20125;-73
2022/12/10 08:02:40;;;;;;;38.22;19.27;;;1.10;99.90;;;;;;4967783;28;20057;-73
2022/12/10 08:05:06;;;;;;;42.83;21.05;;;1.00;99.90;;;;;;4969987;28;20035;-73
2022/12/10 08:07:32;;;;;;;40.42;21.15;;;1.00;99.90;;;;;;4970324;28;20134;-73
2022/12/10 08:09:58;;;;;;;45.80;22.88;;;1.00;99.90;;;;;;4966602;28;20309;-72
2022/12/10 08:12:24;;;;;;;38.00;20.58;;;1.00;99.90;;;;;;4967907;28;20432;-73
2022/12/10 08:14:49;;;;;;;42.85;20.38;;;1.00;99.90;;;;;;4967781;28;20041;-73
2022/12/10 08:17:15;;;;;;;40.05;19.98;;;1.00;99.90;;;;;;4965377;28;20038;-74
2022/12/10 08:19:40;;;;;;;39.55;20.27;;;1.00;99.90;;;;;;4968012;28;20029;-73
2022/12/10 08:22:06;;;;;;;40.10;18.40;;;1.00;99.90;;;;;;4964598;28;20030;-73
2022/12/10 08:24:32;;;;;;;36.72;19.90;;;1.00;99.90;;;;;;4965786;28;20114;-73
2022/12/10 08:26:58;;;;;;;39.67;21.25;;;1.00;99.90;;;;;;4969372;28;20106;-73
2022/12/10 08:29:23;;;;;;;39.20;19.15;;;1.00;99.90;;;;;;4971781;28;20034;-73
2022/12/10 08:31:49;;;;;;;41.85;20.95;;;1.00;99.90;;;;;;4970220;28;20023;-73
2022/12/10 08:34:16;;;;;;;38.60;20.25;;;1.00;99.90;;;;;;4970025;28;20030;-73
2022/12/10 08:36:43;;;;;;;44.05;21.08;;;1.00;99.90;;;;;;4968929;28;20023;-73
2022/12/10 08:39:10;;;;;;;41.00;20.73;;;1.00;99.90;;;;;;4971446;28;20093;-73
2022/12/10 08:41:36;;;;;;;41.80;20.70;;;1.00;99.90;;;;;;4964278;28;20436;-73
2022/12/10 08:44:01;;;;;;;35.60;18.23;;;1.00;99.90;;;;;;4968162;28;20031;-72
2022/12/10 08:46:28;;;;;;;34.38;19.02;;;1.00;99.90;;;;;;4970531;28;20395;-73
2022/12/10 08:48:54;;;;;;;40.53;20.73;;;1.00;99.90;;;;;;4969289;28;20065;-73
2022/12/10 08:51:21;;;;;;;37.95;20.17;;;1.00;99.90;;;;;;4968321;28;20131;-73
2022/12/10 08:53:47;;;;;;;41.65;20.73;;;1.00;99.90;;;;;;4970608;28;20029;-73
2022/12/10 08:56:13;;;;;;;42.15;22.25;;;1.10;99.90;;;;;;4972886;28;20475;-74
2022/12/10 08:58:39;;;;;;;41.22;19.58;;;1.10;99.90;;;;;;4970170;28;20030;-73
2022/12/10 09:01:07;;;;;;;36.20;20.00;;;1.10;99.90;;;;;;4972376;28;20026;-74
2022/12/10 09:03:33;;;;;;;40.17;18.60;;;1.10;99.90;;;;;;4971090;28;20025;-74
2022/12/10 09:06:10;;;;;;;40.58;20.02;;;1.10;99.90;;;;;;4970315;28;20050;-73
2022/12/10 09:08:35;;;;;;;39.35;20.23;;;1.10;99.90;;;;;;4970626;28;20035;-74
2022/12/10 09:11:07;;;;;;;38.08;18.70;;;1.10;99.90;;;;;;4970488;28;20482;-73
2022/12/10 09:13:33;;;;;;;39.47;19.77;;;1.10;99.90;;;;;;4968965;28;20046;-74
2022/12/10 09:15:58;;;;;;;39.65;20.77;;;1.10;99.90;;;;;;4967917;28;20097;-74
2022/12/10 09:18:24;;;;;;;38.90;20.60;;;1.10;99.90;;;;;;4970699;28;20029;-74
2022/12/10 09:20:50;;;;;;;39.13;20.10;;;1.10;99.90;;;;;;4966941;28;20761;-74
2022/12/10 09:23:18;;;;;;;41.63;21.85;;;1.20;99.90;;;;;;4969841;28;20027;-74
2022/12/10 09:25:44;;;;;;;38.80;20.00;;;1.10;99.90;;;;;;4970304;28;20030;-74
2022/12/10 09:28:09;;;;;;;37.67;20.45;;;1.20;99.90;;;;;;4970981;28;20130;-74
2022/12/10 09:30:35;;;;;;;40.67;20.20;;;1.20;99.90;;;;;;4971898;28;20309;-74
2022/12/10 09:33:07;;;;;;;40.70;20.65;;;1.20;99.90;;;;;;4966965;28;20522;-73
2022/12/10 09:35:33;;;;;;;43.75;20.27;;;1.20;99.90;;;;;;4966311;28;20065;-74
2022/12/10 09:38:02;;;;;;;41.30;20.90;;;1.20;99.90;;;;;;4971860;28;20059;-73
2022/12/10 09:41:01;;;;;;;38.35;19.83;;;1.30;99.90;;;;;;4968797;28;20035;-73
2022/12/10 09:43:49;;;;;;;41.05;19.80;;;1.30;99.90;;;;;;4959058;28;20483;-74
2022/12/10 09:46:33;;;;;;;43.60;20.02;;;1.30;99.90;;;;;;4969724;28;20034;-73
2022/12/10 09:49:12;;;;;;;39.15;19.63;;;1.40;99.90;;;;;;4970368;28;20500;-73
2022/12/10 09:51:39;;;;;;;37.60;18.60;;;1.40;99.90;;;;;;4970638;28;20439;-73
2022/12/10 09:54:25;;;;;;;39.65;19.63;;;1.40;99.90;;;;;;4966770;28;20150;-73
2022/12/10 09:56:52;;;;;;;35.28;18.65;;;1.40;99.90;;;;;;4968931;28;20019;-73
2022/12/10 09:59:37;;;;;;;41.03;20.55;;;1.40;99.90;;;;;;4969328;28;20468;-73
2022/12/10 10:02:17;;;;;;;39.03;20.67;;;1.50;99.90;;;;;;4970956;28;20015;-74
2022/12/10 10:04:49;;;;;;;42.58;20.05;;;1.50;99.90;;;;;;4968430;28;20038;-73
2022/12/10 10:07:24;;;;;;;39.08;19.70;;;1.50;99.90;;;;;;4966762;28;20077;-73
2022/12/10 10:09:52;;;;;;;37.25;20.35;;;1.50;99.90;;;;;;4964329;28;20145;-74
2022/12/10 10:12:18;;;;;;;41.53;21.08;;;1.50;99.90;;;;;;4966333;28;20058;-74
2022/12/10 10:14:45;;;;;;;35.55;19.15;;;1.60;99.90;;;;;;4969518;28;20077;-74
2022/12/10 10:17:25;;;;;;;41.80;20.70;;;1.50;99.90;;;;;;4969472;28;20373;-73
2022/12/10 10:19:51;;;;;;;37.70;19.63;;;1.60;99.90;;;;;;4971657;28;20435;-74
2022/12/10 10:22:17;;;;;;;33.63;19.20;;;1.60;99.90;;;;;;4974802;28;20023;-74
2022/12/10 10:24:47;;;;;;;36.70;19.17;;;1.60;99.90;;;;;;4970423;28;20057;-74
2022/12/10 10:27:16;;;;;;;37.78;18.92;;;1.50;99.90;;;;;;4970576;28;20121;-74
2022/12/10 10:29:52;;;;;;;38.30;20.27;;;1.60;99.90;;;;;;4972091;28;20030;-74
2022/12/10 10:32:17;;;;;;;40.78;19.38;;;1.60;99.90;;;;;;4971884;28;20460;-74
2022/12/10 10:34:44;;;;;;;41.67;18.63;;;1.70;99.90;;;;;;4975765;28;20117;-73
2022/12/10 10:37:23;;;;;;;38.88;19.77;;;1.70;99.90;;;;;;4974020;28;20054;-73
2022/12/10 10:39:50;;;;;;;39.30;19.92;;;1.70;99.90;;;;;;4969755;28;20026;-72
2022/12/10 10:42:37;;;;;;;36.33;18.13;;;1.70;99.90;;;;;;4969206;28;20045;-73
2022/12/10 10:45:25;;;;;;;38.13;18.75;;;1.70;99.90;;;;;;4969927;28;20032;-73
2022/12/10 10:48:11;;;;;;;37.45;19.40;;;1.60;99.90;;;;;;4965890;28;20038;-73
2022/12/10 10:51:03;;;;;;;37.08;19.48;;;1.70;99.90;;;;;;4969885;28;20027;-72
2022/12/10 10:53:43;;;;;;;40.00;19.92;;;1.60;99.90;;;;;;4970721;28;20035;-72
2022/12/10 10:56:31;;;;;;;37.13;19.20;;;1.60;99.90;;;;;;4969927;28;20169;-73
2022/12/10 10:59:03;;;;;;;39.42;20.33;;;1.60;99.90;;;;;;4968652;28;20253;-73
2022/12/10 11:01:49;;;;;;;39.53;20.95;;;1.60;99.90;;;;;;4971716;28;20084;-72
2022/12/10 11:04:24;;;;;;;39.03;18.75;;;1.60;99.90;;;;;;4967990;28;20034;-74
2022/12/10 11:06:56;;;;;;;39.92;19.63;;;1.60;99.90;;;;;;4966528;28;20527;-73
2022/12/10 11:09:27;;;;;;;41.92;20.67;;;1.70;99.90;;;;;;4962039;28;20106;-72
2022/12/10 11:12:38;;;;;;;38.55;19.65;;;1.70;99.90;;;;;;4974207;28;20031;-74
2022/12/10 11:15:29;;;;;;;32.90;17.73;;;1.70;99.90;;;;;;4970992;28;20118;-73
2022/12/10 11:17:59;;;;;;;35.42;18.30;;;1.70;99.90;;;;;;4974134;28;20480;-75
2022/12/10 11:20:34;;;;;;;34.78;17.52;;;1.60;99.90;;;;;;4969983;28;20472;-77
2022/12/10 11:23:09;;;;;;;36.85;19.27;;;1.60;99.90;;;;;;4962820;28;20030;-79
2022/12/10 11:26:15;;;;;;;35.53;19.33;;;1.60;99.90;;;;;;4970226;28;20046;-76
2022/12/10 11:29:10;;;;;;;40.10;19.02;;;1.60;99.90;;;;;;4962561;28;20035;-76
2022/12/10 11:31:57;;;;;;;36.58;18.13;;;1.60;99.90;;;;;;4973200;28;20054;-77
2022/12/10 11:34:44;;;;;;;34.78;18.90;;;1.70;99.90;;;;;;4970485;28;20101;-77
2022/12/10 11:37:22;;;;;;;37.00;19.45;;;1.70;99.90;;;;;;4816536;28;20050;-78
2022/12/10 11:40:27;;;;;;;39.08;20.23;;;1.70;99.90;;;;;;5007791;28;20055;-77
2022/12/10 11:43:21;;;;;;;31.65;17.52;;;1.70;99.90;;;;;;4973999;28;20077;-76
2022/12/10 11:46:05;;;;;;;37.17;18.88;;;1.70;99.90;;;;;;4986702;28;20033;-75
2022/12/10 11:49:08;;;;;;;34.05;18.67;;;1.70;99.90;;;;;;4978016;28;20567;-75
2022/12/10 11:52:05;;;;;;;36.88;18.48;;;1.60;99.90;;;;;;4985350;28;20053;-75
2022/12/10 11:54:48;;;;;;;33.60;17.20;;;1.60;99.90;;;;;;4990068;28;20034;-74
2022/12/10 11:57:52;;;;;;;37.83;19.30;;;1.70;99.90;;;;;;4989754;28;20094;-75
2022/12/10 12:00:37;;;;;;;39.03;19.60;;;1.70;99.90;;;;;;4966733;28;20487;-76
2022/12/10 12:03:31;;;;;;;40.17;19.80;;;1.70;99.90;;;;;;4991163;28;20053;-75
2022/12/10 12:06:48;;;;;;;32.50;16.88;;;1.70;99.90;;;;;;4993064;28;20038;-75
2022/12/10 12:09:55;;;;;;;37.45;16.75;;;1.60;99.90;;;;;;4947548;28;20050;-75
2022/12/10 12:12:48;;;;;;;29.60;17.00;;;1.70;99.90;;;;;;4991324;28;20030;-75
2022/12/10 12:15:49;;;;;;;36.00;17.83;;;1.70;99.90;;;;;;4986724;28;20034;-75
2022/12/10 12:18:58;;;;;;;33.03;15.88;;;1.70;99.90;;;;;;4981641;28;20090;-75
2022/12/10 12:21:27;;;;;;;29.08;15.02;;;1.80;99.90;;;;;;4969869;28;20455;-76
2022/12/10 12:24:09;;;;;;;29.27;15.95;;;1.80;99.90;;;;;;4960253;28;20081;-75
2022/12/10 12:27:05;;;;;;;31.45;16.20;;;1.80;99.90;;;;;;4986281;28;20100;-76
2022/12/10 12:29:41;;;;;;;32.60;16.75;;;1.80;99.90;;;;;;4989001;28;20079;-75
2022/12/10 12:32:51;;;;;;;29.52;15.55;;;1.80;99.90;;;;;;4987685;28;20042;-74
2022/12/10 12:35:28;;;;;;;33.13;16.02;;;1.80;99.90;;;;;;4930738;29;20047;-75
2022/12/10 12:38:10;;;;;;;30.20;16.25;;;1.80;99.90;;;;;;4927471;29;20064;-76
2022/12/10 12:40:42;;;;;;;29.77;15.75;;;1.80;99.90;;;;;;4970673;28;20049;-75
2022/12/10 12:43:17;;;;;;;30.60;15.27;;;1.80;99.90;;;;;;4986939;28;20076;-75
2022/12/10 12:45:46;;;;;;;30.23;15.75;;;1.70;99.90;;;;;;4989386;28;20108;-76
2022/12/10 12:48:37;;;;;;;31.73;15.95;;;1.80;99.90;;;;;;4987857;28;20037;-76
2022/12/10 12:51:27;;;;;;;31.42;15.60;;;1.70;99.90;;;;;;4990894;28;20036;-76
2022/12/10 12:53:53;;;;;;;28.80;14.15;;;1.80;99.90;;;;;;4985533;28;20510;-76
2022/12/10 12:56:44;;;;;;;27.38;15.13;;;1.80;99.90;;;;;;4987529;28;20059;-76
2022/12/10 12:59:27;;;;;;;28.35;14.23;;;1.80;99.90;;;;;;4992128;28;20041;-75
2022/12/10 13:02:22;;;;;;;24.55;13.38;;;1.80;99.90;;;;;;4985666;28;20034;-75
2022/12/10 13:04:49;;;;;;;22.42;11.82;;;1.80;99.90;;;;;;4983504;28;20037;-76
2022/12/10 13:07:15;;;;;;;21.42;11.65;;;1.70;99.90;;;;;;4989672;28;20128;-75
2022/12/10 13:10:07;;;;;;;25.80;13.90;;;1.80;99.90;;;;;;4988958;28;20549;-75
2022/12/10 13:13:08;;;;;;;27.85;14.23;;;1.80;99.90;;;;;;4988959;28;20022;-75
2022/12/10 13:15:38;;;;;;;27.05;14.07;;;1.80;99.90;;;;;;4984373;28;20435;-75
2022/12/10 13:18:23;;;;;;;26.30;13.88;;;1.90;99.90;;;;;;4986347;28;20403;-76